createdAt,value
2022-09-12T00:01:31.072Z,20.58
2022-09-12T00:04:19.356Z,19.55
2022-09-12T00:07:07.297Z,22.17
2022-09-12T00:09:55.049Z,26.27
2022-09-12T00:12:42.909Z,20.40
2022-09-12T00:15:30.663Z,21.77
2022-09-12T00:18:18.417Z,25.77
2022-09-12T00:21:06.765Z,23.42
2022-09-12T00:23:54.752Z,23.17
2022-09-12T00:26:42.584Z,24.80
2022-09-12T00:29:30.925Z,24.60
2022-09-12T00:32:18.918Z,21.80
2022-09-12T00:35:07.319Z,20.35
2022-09-12T00:37:55.118Z,22.52
2022-09-12T00:40:44.170Z,20.17
2022-09-12T00:43:44.585Z,19.90
2022-09-12T00:46:42.383Z,20.90
2022-09-12T00:49:49.744Z,22.83
2022-09-12T00:52:44.797Z,22.15
2022-09-12T00:55:41.529Z,19.17
2022-09-12T00:58:36.883Z,18.55
2022-09-12T01:01:25.939Z,21.20
2022-09-12T01:04:16.997Z,19.80
2022-09-12T01:07:06.284Z,23.00
2022-09-12T01:09:54.181Z,20.13
2022-09-12T01:12:43.760Z,20.90
2022-09-12T01:15:31.604Z,23.63
2022-09-12T01:18:41.893Z,22.33
2022-09-12T01:22:17.254Z,23.80
2022-09-12T01:28:58.087Z,21.83
2022-09-12T01:32:41.961Z,24.55
2022-09-12T01:36:02.112Z,23.90
2022-09-12T01:39:00.085Z,23.42
2022-09-12T01:42:01.356Z,23.05
2022-09-12T01:45:10.138Z,21.23
2022-09-12T01:48:08.004Z,23.35
2022-09-12T01:51:23.686Z,24.88
2022-09-12T01:54:20.827Z,23.73
2022-09-12T01:57:20.896Z,22.77
2022-09-12T02:00:12.975Z,22.23
2022-09-12T02:03:14.770Z,24.73
2022-09-12T02:06:18.009Z,22.60
2022-09-12T02:09:13.787Z,20.30
2022-09-12T02:12:04.172Z,24.83
2022-09-12T02:15:01.917Z,21.42
2022-09-12T02:17:53.033Z,22.63
2022-09-12T02:20:48.428Z,27.40
2022-09-12T02:23:43.383Z,16.98
2022-09-12T02:26:41.303Z,21.42
2022-09-12T02:29:29.194Z,21.55
2022-09-12T02:32:38.185Z,22.23
2022-09-12T02:35:54.355Z,21.48
2022-09-12T02:38:46.336Z,20.48
2022-09-12T02:41:34.273Z,21.55
2022-09-12T02:44:24.481Z,20.30
2022-09-12T02:47:20.554Z,24.70
2022-09-12T02:50:09.149Z,21.90
2022-09-12T02:53:03.769Z,23.35
2022-09-12T02:55:52.556Z,20.65
2022-09-12T02:58:40.386Z,22.00
2022-09-12T03:01:40.975Z,23.65
2022-09-12T03:05:07.784Z,23.75
2022-09-12T03:08:16.206Z,20.73
2022-09-12T03:11:13.330Z,22.55
2022-09-12T03:14:27.735Z,24.17
2022-09-12T03:17:42.112Z,24.00
2022-09-12T03:21:05.599Z,20.45
2022-09-12T03:24:11.186Z,26.45
2022-09-12T03:27:16.608Z,24.75
2022-09-12T03:30:06.201Z,24.58
2022-09-12T03:32:55.372Z,25.02
2022-09-12T03:35:43.657Z,24.40
2022-09-12T03:38:31.392Z,20.75
2022-09-12T03:41:20.222Z,27.55
2022-09-12T03:44:07.976Z,23.45
2022-09-12T03:46:55.729Z,25.65
2022-09-12T03:49:43.528Z,23.88
2022-09-12T03:52:31.226Z,24.55
2022-09-12T03:55:19.283Z,23.13
2022-09-12T03:58:07.233Z,25.52
2022-09-12T04:00:54.983Z,22.48
2022-09-12T04:03:51.558Z,22.80
2022-09-12T04:06:39.286Z,23.90
2022-09-12T04:09:26.989Z,25.75
2022-09-12T04:12:14.887Z,27.88
2022-09-12T04:15:02.772Z,25.88
2022-09-12T04:17:50.555Z,25.85
2022-09-12T04:20:38.279Z,23.02
2022-09-12T04:23:25.996Z,22.75
2022-09-12T04:26:16.666Z,24.23
2022-09-12T04:29:04.616Z,23.17
2022-09-12T04:31:52.497Z,23.42
2022-09-12T04:34:40.246Z,27.48
2022-09-12T04:37:28.090Z,24.13
2022-09-12T04:40:16.070Z,30.20
2022-09-12T04:43:04.947Z,30.40
2022-09-12T04:45:52.690Z,26.23
2022-09-12T04:48:40.696Z,25.08
2022-09-12T04:51:31.877Z,28.20
2022-09-12T04:54:20.569Z,25.58
2022-09-12T04:57:08.314Z,22.63
2022-09-12T04:59:56.133Z,26.67
2022-09-12T05:02:44.077Z,23.58
2022-09-12T05:05:31.819Z,27.70
2022-09-12T05:08:19.579Z,29.70
2022-09-12T05:11:22.734Z,26.85
2022-09-12T05:14:12.847Z,26.38
2022-09-12T05:17:01.545Z,27.77
2022-09-12T05:19:49.655Z,23.73
2022-09-12T05:22:37.391Z,25.98
2022-09-12T05:25:25.371Z,30.13
2022-09-12T05:28:13.082Z,27.98
2022-09-12T05:31:13.339Z,29.33
2022-09-12T05:34:01.217Z,28.67
2022-09-12T05:36:49.274Z,27.80
2022-09-12T05:39:37.110Z,32.65
2022-09-12T05:42:24.971Z,27.42
2022-09-12T05:45:14.166Z,23.50
2022-09-12T05:48:02.647Z,27.92
2022-09-12T05:50:50.369Z,24.17
2022-09-12T05:53:40.284Z,26.30
2022-09-12T05:56:30.577Z,31.45
2022-09-12T05:59:23.914Z,24.90
2022-09-12T06:02:12.240Z,28.27
2022-09-12T06:04:59.995Z,23.48
2022-09-12T06:07:48.379Z,21.02
2022-09-12T06:10:36.600Z,24.98
2022-09-12T06:13:24.481Z,27.10
2022-09-12T06:16:18.942Z,23.33
2022-09-12T06:19:15.968Z,26.88
2022-09-12T06:22:05.067Z,24.80
2022-09-12T06:24:56.044Z,21.23
2022-09-12T06:27:47.523Z,22.17
2022-09-12T06:30:35.383Z,18.85
2022-09-12T06:33:23.128Z,22.23
2022-09-12T06:36:14.438Z,21.08
2022-09-12T06:39:07.594Z,18.48
2022-09-12T06:41:55.600Z,21.83
2022-09-12T06:44:45.958Z,15.93
2022-09-12T06:47:33.699Z,16.88
2022-09-12T06:50:23.831Z,15.18
2022-09-12T06:53:11.552Z,16.70
2022-09-12T06:56:05.147Z,16.30
2022-09-12T06:58:54.139Z,19.85
2022-09-12T07:01:42.333Z,13.15
2022-09-12T07:04:30.418Z,16.05
2022-09-12T07:07:18.351Z,14.48
2022-09-12T07:10:06.797Z,14.23
2022-09-12T07:12:54.718Z,13.80
2022-09-12T07:15:42.616Z,15.00
2022-09-12T07:18:30.926Z,14.07
2022-09-12T07:21:19.345Z,15.68
2022-09-12T07:24:09.568Z,13.90
2022-09-12T07:26:57.663Z,14.07
2022-09-12T07:29:46.825Z,10.30
2022-09-12T07:32:34.527Z,11.98
2022-09-12T07:35:22.435Z,12.48
2022-09-12T07:38:10.183Z,9.95
2022-09-12T07:40:58.739Z,11.57
2022-09-12T07:43:47.286Z,10.55
2022-09-12T07:46:35.432Z,9.55
2022-09-12T07:49:23.411Z,10.73
2022-09-12T07:52:11.186Z,10.35
2022-09-12T07:54:58.962Z,10.43
2022-09-12T07:57:50.933Z,9.07
2022-09-12T08:00:38.639Z,8.75
2022-09-12T08:03:26.388Z,9.25
2022-09-12T08:06:20.290Z,7.88
2022-09-12T08:09:08.227Z,11.07
2022-09-12T08:11:56.475Z,9.55
2022-09-12T08:14:44.272Z,10.25
2022-09-12T08:17:32.052Z,8.30
2022-09-12T08:20:20.336Z,9.65
2022-09-12T08:23:08.130Z,10.43
2022-09-12T08:25:58.508Z,9.75
2022-09-12T08:28:46.676Z,9.35
2022-09-12T08:31:36.902Z,9.38
2022-09-12T08:34:25.099Z,9.23
2022-09-12T08:37:12.862Z,8.95
2022-09-12T08:40:00.601Z,11.48
2022-09-12T08:43:14.610Z,10.82
2022-09-12T08:46:15.790Z,9.43
2022-09-12T08:49:05.525Z,8.70
2022-09-12T08:51:55.179Z,10.32
2022-09-12T08:54:45.488Z,9.52
2022-09-12T08:57:33.591Z,10.93
2022-09-12T09:00:21.965Z,10.93
2022-09-12T09:03:46.719Z,12.90
2022-09-12T09:07:18.221Z,9.85
2022-09-12T09:10:35.208Z,12.25
2022-09-12T09:13:56.029Z,10.32
2022-09-12T09:16:46.714Z,10.45
2022-09-12T09:19:50.520Z,12.40
2022-09-12T09:23:15.931Z,9.38
2022-09-12T09:26:18.627Z,10.35
2022-09-12T09:29:19.383Z,10.77
2022-09-12T09:32:18.576Z,11.25
2022-09-12T09:35:19.405Z,9.77
2022-09-12T09:38:24.739Z,10.77
2022-09-12T09:41:50.893Z,9.55
2022-09-12T09:44:39.003Z,10.20
2022-09-12T09:47:26.990Z,10.02
2022-09-12T09:50:17.035Z,8.90
2022-09-12T09:53:11.580Z,9.38
2022-09-12T09:56:11.420Z,9.35
2022-09-12T09:59:20.725Z,9.52
2022-09-12T10:02:14.618Z,9.30
2022-09-12T10:07:53.359Z,10.85
2022-09-12T10:11:06.595Z,12.43
2022-09-12T10:13:57.627Z,16.60
2022-09-12T10:16:53.211Z,12.38
2022-09-12T10:19:41.330Z,12.20
2022-09-12T10:22:29.808Z,12.00
2022-09-12T10:25:21.076Z,11.07
2022-09-12T10:28:27.078Z,12.50
2022-09-12T10:31:39.071Z,12.60
2022-09-12T10:34:36.281Z,14.40
2022-09-12T10:37:33.750Z,10.85
2022-09-12T10:40:32.688Z,15.18
2022-09-12T10:43:41.421Z,10.05
2022-09-12T10:46:31.279Z,11.50
2022-09-12T10:49:40.085Z,12.77
2022-09-12T10:52:28.459Z,10.82
2022-09-12T10:55:16.499Z,10.98
2022-09-12T10:58:30.193Z,13.48
2022-09-12T11:01:53.237Z,11.65
2022-09-12T11:05:03.872Z,10.02
2022-09-12T11:08:01.528Z,12.98
2022-09-12T11:11:35.741Z,14.18
2022-09-12T11:14:58.349Z,12.35
2022-09-12T11:18:10.066Z,9.63
2022-09-12T11:21:25.341Z,12.07
2022-09-12T11:24:32.055Z,11.57
2022-09-12T11:27:31.564Z,10.52
2022-09-12T11:30:19.517Z,9.80
2022-09-12T11:33:42.681Z,11.35
2022-09-12T11:37:10.348Z,12.48
2022-09-12T11:40:14.552Z,10.60
2022-09-12T11:43:36.245Z,9.07
2022-09-12T11:46:36.812Z,11.05
2022-09-12T11:49:38.259Z,8.77
2022-09-12T11:52:35.557Z,9.63
2022-09-12T11:55:29.875Z,8.27
2022-09-12T11:58:23.266Z,8.93
2022-09-12T12:01:47.651Z,9.53
2022-09-12T12:04:56.217Z,8.23
2022-09-12T12:07:57.094Z,10.43
2022-09-12T12:10:49.915Z,11.25
2022-09-12T12:13:52.107Z,8.65
2022-09-12T12:16:41.531Z,9.10
2022-09-12T12:19:37.974Z,12.48
2022-09-12T12:22:26.193Z,10.48
2022-09-12T12:25:16.207Z,8.20
2022-09-12T12:28:06.429Z,10.20
2022-09-12T12:30:54.365Z,10.40
2022-09-12T12:33:44.953Z,8.40
2022-09-12T12:36:38.633Z,12.50
2022-09-12T12:39:32.357Z,6.78
2022-09-12T12:42:35.471Z,7.45
2022-09-12T12:45:29.108Z,6.68
2022-09-12T12:48:18.836Z,6.38
2022-09-12T12:51:46.403Z,5.57
2022-09-12T12:54:40.066Z,6.30
2022-09-12T12:57:32.015Z,6.82
2022-09-12T13:00:25.928Z,6.45
2022-09-12T13:03:30.821Z,6.88
2022-09-12T13:06:38.707Z,7.43
2022-09-12T13:09:48.120Z,8.23
2022-09-12T13:12:44.465Z,10.35
2022-09-12T13:15:38.268Z,8.55
2022-09-12T13:18:39.355Z,6.00
2022-09-12T13:21:27.210Z,6.28
2022-09-12T13:24:17.187Z,6.28
2022-09-12T13:27:24.194Z,5.55
2022-09-12T13:30:15.587Z,5.88
2022-09-12T13:33:20.862Z,5.88
2022-09-12T13:36:38.907Z,5.28
2022-09-12T13:39:58.231Z,6.53
2022-09-12T13:42:49.265Z,5.75
2022-09-12T13:45:39.345Z,5.95
2022-09-12T13:48:27.710Z,5.72
2022-09-12T13:51:29.784Z,5.57
2022-09-12T13:54:24.346Z,5.10
2022-09-12T13:57:37.542Z,4.15
2022-09-12T14:00:25.578Z,4.93
2022-09-12T14:04:07.101Z,5.72
2022-09-12T14:06:56.528Z,4.80
2022-09-12T14:09:53.399Z,5.57
2022-09-12T14:12:43.618Z,4.68
2022-09-12T14:15:36.183Z,5.05
2022-09-12T14:18:33.772Z,5.65
2022-09-12T14:21:25.949Z,5.53
2022-09-12T14:24:14.784Z,4.18
2022-09-12T14:27:02.520Z,5.13
2022-09-12T14:29:54.287Z,5.18
2022-09-12T14:32:42.386Z,6.50
2022-09-12T14:35:32.397Z,5.07
2022-09-12T14:38:25.313Z,5.18
2022-09-12T14:41:31.708Z,4.80
2022-09-12T14:44:27.672Z,4.72
2022-09-12T14:47:21.837Z,5.05
2022-09-12T14:53:24.837Z,4.90
2022-09-12T14:56:13.846Z,4.60
2022-09-12T14:59:33.191Z,4.63
2022-09-12T15:02:20.856Z,4.63
2022-09-12T15:05:08.626Z,5.30
2022-09-12T15:08:01.634Z,5.75
2022-09-12T15:10:49.591Z,7.88
2022-09-12T15:13:41.868Z,4.88
2022-09-12T15:16:29.615Z,4.95
2022-09-12T15:19:17.611Z,4.60
2022-09-12T15:22:05.500Z,4.88
2022-09-12T15:24:53.416Z,4.88
2022-09-12T15:27:41.231Z,4.78
2022-09-12T15:30:29.015Z,6.32
2022-09-12T15:33:24.193Z,4.60
2022-09-12T15:36:16.569Z,7.57
2022-09-12T15:39:04.851Z,5.60
2022-09-12T15:41:53.131Z,4.70
2022-09-12T15:44:41.727Z,5.60
2022-09-12T15:47:29.526Z,6.55
2022-09-12T15:50:17.571Z,5.90
2022-09-12T15:53:05.408Z,5.53
2022-09-12T15:55:53.351Z,4.45
2022-09-12T15:58:57.215Z,7.32
2022-09-12T16:01:47.033Z,6.38
2022-09-12T16:04:34.955Z,6.70
2022-09-12T16:07:22.678Z,5.75
2022-09-12T16:10:23.844Z,4.95
2022-09-12T16:13:11.654Z,5.43
2022-09-12T16:16:01.093Z,5.30
2022-09-12T16:18:49.240Z,5.03
2022-09-12T16:21:37.670Z,7.97
2022-09-12T16:24:25.417Z,5.20
2022-09-12T16:27:13.199Z,5.22
2022-09-12T16:30:01.144Z,6.25
2022-09-12T16:32:49.301Z,5.63
2022-09-12T16:35:37.096Z,5.80
2022-09-12T16:38:24.934Z,5.13
2022-09-12T16:41:14.104Z,5.93
2022-09-12T16:44:02.020Z,4.50
2022-09-12T16:46:50.377Z,5.35
2022-09-12T16:49:38.151Z,6.05
2022-09-12T16:52:25.892Z,5.90
2022-09-12T16:55:13.599Z,5.05
2022-09-12T16:58:01.345Z,5.13
2022-09-12T17:00:49.349Z,6.13
2022-09-12T17:03:37.154Z,5.60
2022-09-12T17:06:26.323Z,6.00
2022-09-12T17:09:18.468Z,8.05
2022-09-12T17:12:06.340Z,4.75
2022-09-12T17:14:54.368Z,5.50
2022-09-12T17:17:42.138Z,8.95
2022-09-12T17:20:29.983Z,7.93
2022-09-12T17:23:18.159Z,5.00
2022-09-12T17:26:07.010Z,6.28
2022-09-12T17:28:54.699Z,5.78
2022-09-12T17:31:44.127Z,6.18
2022-09-12T17:34:31.984Z,6.30
2022-09-12T17:37:19.806Z,7.25
2022-09-12T17:40:08.953Z,6.43
2022-09-12T17:42:56.945Z,6.85
2022-09-12T17:45:44.677Z,8.93
2022-09-12T17:48:33.101Z,7.18
2022-09-12T17:51:24.478Z,9.60
2022-09-12T17:54:18.212Z,8.68
2022-09-12T17:57:06.313Z,7.72
2022-09-12T17:59:54.116Z,8.35
2022-09-12T18:02:43.004Z,11.15
2022-09-12T18:05:30.967Z,8.15
2022-09-12T18:08:19.456Z,9.70
2022-09-12T18:11:07.756Z,11.15
2022-09-12T18:13:55.643Z,7.82
2022-09-12T18:16:44.160Z,7.05
2022-09-12T18:19:31.994Z,8.98
2022-09-12T18:22:19.902Z,10.63
2022-09-12T18:25:08.066Z,8.45
2022-09-12T18:27:55.856Z,11.75
2022-09-12T18:30:43.584Z,10.98
2022-09-12T18:33:32.123Z,9.40
2022-09-12T18:36:20.860Z,8.77
2022-09-12T18:39:09.477Z,8.18
2022-09-12T18:41:57.307Z,9.50
2022-09-12T18:44:45.053Z,11.68
2022-09-12T18:47:32.791Z,9.63
2022-09-12T18:50:22.637Z,8.45
2022-09-12T18:53:13.327Z,12.35
2022-09-12T18:56:08.790Z,10.98
2022-09-12T18:58:57.690Z,7.28
2022-09-12T19:01:47.247Z,8.82
2022-09-12T19:04:34.998Z,7.68
2022-09-12T19:07:22.851Z,12.20
2022-09-12T19:10:10.597Z,8.52
2022-09-12T19:12:59.236Z,7.93
2022-09-12T19:15:47.027Z,6.50
2022-09-12T19:18:36.908Z,7.28
2022-09-12T19:21:28.699Z,9.93
2022-09-12T19:24:17.154Z,6.93
2022-09-12T19:27:05.294Z,7.13
2022-09-12T19:29:53.162Z,7.05
2022-09-12T19:32:40.964Z,8.65
2022-09-12T19:35:28.786Z,6.97
2022-09-12T19:38:17.561Z,6.53
2022-09-12T19:41:10.400Z,7.07
2022-09-12T19:44:01.452Z,9.52
2022-09-12T19:46:49.394Z,7.10
2022-09-12T19:49:37.150Z,7.82
2022-09-12T19:52:25.007Z,7.93
2022-09-12T19:55:12.888Z,8.85
2022-09-12T19:58:00.644Z,8.52
2022-09-12T20:00:48.378Z,8.82
2022-09-12T20:03:36.187Z,7.93
2022-09-12T20:06:24.616Z,10.02
2022-09-12T20:09:12.306Z,10.10
2022-09-12T20:12:00.000Z,8.70
2022-09-12T20:14:47.687Z,8.95
2022-09-12T20:17:35.750Z,7.70
2022-09-12T20:20:25.404Z,9.43
2022-09-12T20:23:13.211Z,11.20
2022-09-12T20:26:01.947Z,11.98
2022-09-12T20:28:51.365Z,10.15
2022-09-12T20:31:41.533Z,9.90
2022-09-12T20:34:29.338Z,12.77
2022-09-12T20:37:17.223Z,8.85
2022-09-12T20:40:05.380Z,9.35
2022-09-12T20:42:53.330Z,12.80
2022-09-12T20:45:41.562Z,8.98
2022-09-12T20:48:30.780Z,10.93
2022-09-12T20:51:20.192Z,9.65
2022-09-12T20:54:08.143Z,9.13
2022-09-12T20:56:55.881Z,10.57
2022-09-12T20:59:43.661Z,10.82
2022-09-12T21:02:31.521Z,13.35
2022-09-12T21:05:19.265Z,16.40
2022-09-12T21:08:06.976Z,10.95
2022-09-12T21:10:54.654Z,10.00
2022-09-12T21:13:42.468Z,10.32
2022-09-12T21:16:30.329Z,9.40
2022-09-12T21:19:18.143Z,10.93
2022-09-12T21:22:05.927Z,8.70
2022-09-12T21:24:53.672Z,10.10
2022-09-12T21:27:41.382Z,12.32
2022-09-12T21:30:29.743Z,8.98
2022-09-12T21:33:20.149Z,10.50
2022-09-12T21:36:08.588Z,10.95
2022-09-12T21:38:59.211Z,9.88
2022-09-12T21:41:46.932Z,11.63
2022-09-12T21:44:34.654Z,8.95
2022-09-12T21:47:22.393Z,9.30
2022-09-12T21:50:10.761Z,9.68
2022-09-12T21:52:58.547Z,9.23
2022-09-12T21:55:46.278Z,10.57
2022-09-12T21:58:34.691Z,9.93
2022-09-12T22:01:22.489Z,12.13
2022-09-12T22:04:10.835Z,11.73
2022-09-12T22:06:58.532Z,9.52
2022-09-12T22:09:46.367Z,9.95
2022-09-12T22:12:34.284Z,12.65
2022-09-12T22:15:51.194Z,11.27
2022-09-12T22:18:32.709Z,9.80
2022-09-12T22:21:24.210Z,13.05
2022-09-12T22:24:30.347Z,11.27
2022-09-12T22:27:18.101Z,11.55
2022-09-12T22:30:07.995Z,9.40
2022-09-12T22:32:55.773Z,11.57
2022-09-12T22:35:44.133Z,11.57
2022-09-12T22:38:31.936Z,12.93
2022-09-12T22:41:19.657Z,10.23
2022-09-12T22:44:10.033Z,9.40
2022-09-12T22:46:57.829Z,8.65
2022-09-12T22:49:47.617Z,9.57
2022-09-12T22:52:35.357Z,11.55
2022-09-12T22:55:23.105Z,10.05
2022-09-12T22:58:12.087Z,9.90
2022-09-12T23:01:00.013Z,11.98
2022-09-12T23:03:47.946Z,10.07
2022-09-12T23:06:35.808Z,10.85
2022-09-12T23:09:23.552Z,11.10
2022-09-12T23:12:11.246Z,9.52
2022-09-12T23:14:58.971Z,9.93
2022-09-12T23:17:46.737Z,10.48
2022-09-12T23:20:34.457Z,11.93
2022-09-12T23:23:22.189Z,10.90
2022-09-12T23:26:12.645Z,15.40
2022-09-12T23:29:02.283Z,13.23
2022-09-12T23:31:50.049Z,11.10
2022-09-12T23:34:37.799Z,12.80
2022-09-12T23:37:26.574Z,13.10
2022-09-12T23:40:14.551Z,11.32
2022-09-12T23:43:02.369Z,13.80
2022-09-12T23:45:50.141Z,12.10
2022-09-12T23:48:37.943Z,11.10
2022-09-12T23:51:25.826Z,11.95
2022-09-12T23:54:13.670Z,16.50
2022-09-12T23:57:01.412Z,11.52
2022-09-12T23:59:49.228Z,12.15
